sensor_id;sensor_type;location;lat;lon;timestamp;temperature;humidity
47765;DHT22;33529;49.242;8.670;2023-04-03T00:02:01;3.70;99.90
47765;DHT22;33529;49.242;8.670;2023-04-03T00:04:28;3.70;99.90
47765;DHT22;33529;49.242;8.670;2023-04-03T00:06:57;3.60;99.90
47765;DHT22;33529;49.242;8.670;2023-04-03T00:09:24;3.60;99.90
47765;DHT22;33529;49.242;8.670;2023-04-03T00:11:51;3.60;99.90
47765;DHT22;33529;49.242;8.670;2023-04-03T00:14:18;3.50;99.90
47765;DHT22;33529;49.242;8.670;2023-04-03T00:16:44;3.40;99.90
47765;DHT22;33529;49.242;8.670;2023-04-03T00:19:11;3.40;99.90
47765;DHT22;33529;49.242;8.670;2023-04-03T00:21:39;3.30;99.90
47765;DHT22;33529;49.242;8.670;2023-04-03T00:24:09;3.30;99.90
47765;DHT22;33529;49.242;8.670;2023-04-03T00:26:36;3.30;99.90
47765;DHT22;33529;49.242;8.670;2023-04-03T00:29:03;3.20;99.90
47765;DHT22;33529;49.242;8.670;2023-04-03T00:31:29;3.10;99.90
47765;DHT22;33529;49.242;8.670;2023-04-03T00:33:56;3.10;99.90
47765;DHT22;33529;49.242;8.670;2023-04-03T00:36:23;3.10;99.90
47765;DHT22;33529;49.242;8.670;2023-04-03T00:38:50;3.10;99.90
47765;DHT22;33529;49.242;8.670;2023-04-03T00:41:17;3.10;99.90
47765;DHT22;33529;49.242;8.670;2023-04-03T00:43:44;3.00;99.90
47765;DHT22;33529;49.242;8.670;2023-04-03T00:46:11;3.00;99.90
47765;DHT22;33529;49.242;8.670;2023-04-03T00:48:43;3.10;99.90
47765;DHT22;33529;49.242;8.670;2023-04-03T00:51:16;3.00;99.90
47765;DHT22;33529;49.242;8.670;2023-04-03T00:53:55;3.00;99.90
47765;DHT22;33529;49.242;8.670;2023-04-03T00:56:25;3.00;99.90
47765;DHT22;33529;49.242;8.670;2023-04-03T00:59:04;3.00;99.90
47765;DHT22;33529;49.242;8.670;2023-04-03T01:01:32;2.90;99.90
47765;DHT22;33529;49.242;8.670;2023-04-03T01:04:00;2.90;99.90
47765;DHT22;33529;49.242;8.670;2023-04-03T01:06:29;2.90;99.90
47765;DHT22;33529;49.242;8.670;2023-04-03T01:09:04;2.80;99.90
47765;DHT22;33529;49.242;8.670;2023-04-03T01:11:32;2.80;99.90
47765;DHT22;33529;49.242;8.670;2023-04-03T01:14:00;2.90;99.90
47765;DHT22;33529;49.242;8.670;2023-04-03T01:16:33;2.80;99.90
47765;DHT22;33529;49.242;8.670;2023-04-03T01:19:01;2.80;99.90
47765;DHT22;33529;49.242;8.670;2023-04-03T01:24:32;2.80;99.90
47765;DHT22;33529;49.242;8.670;2023-04-03T01:27:03;2.80;99.90
47765;DHT22;33529;49.242;8.670;2023-04-03T01:29:35;2.80;99.90
47765;DHT22;33529;49.242;8.670;2023-04-03T01:32:02;2.70;99.90
47765;DHT22;33529;49.242;8.670;2023-04-03T01:34:30;2.70;99.90
47765;DHT22;33529;49.242;8.670;2023-04-03T01:37:05;2.70;99.90
47765;DHT22;33529;49.242;8.670;2023-04-03T01:39:32;2.70;99.90
47765;DHT22;33529;49.242;8.670;2023-04-03T01:41:59;2.70;99.90
47765;DHT22;33529;49.242;8.670;2023-04-03T01:44:33;2.70;99.90
47765;DHT22;33529;49.242;8.670;2023-04-03T01:47:05;2.70;99.90
47765;DHT22;33529;49.242;8.670;2023-04-03T01:49:33;2.70;99.90
47765;DHT22;33529;49.242;8.670;2023-04-03T01:52:00;2.70;99.90
47765;DHT22;33529;49.242;8.670;2023-04-03T01:54:27;2.70;99.90
47765;DHT22;33529;49.242;8.670;2023-04-03T01:56:54;2.70;99.90
47765;DHT22;33529;49.242;8.670;2023-04-03T01:59:21;2.70;99.90
47765;DHT22;33529;49.242;8.670;2023-04-03T02:01:48;2.70;99.90
47765;DHT22;33529;49.242;8.670;2023-04-03T02:04:14;2.70;99.90
47765;DHT22;33529;49.242;8.670;2023-04-03T02:06:41;2.70;99.90
47765;DHT22;33529;49.242;8.670;2023-04-03T02:09:08;2.80;99.90
47765;DHT22;33529;49.242;8.670;2023-04-03T02:11:35;2.80;99.90
47765;DHT22;33529;49.242;8.670;2023-04-03T02:14:01;2.80;99.90
47765;DHT22;33529;49.242;8.670;2023-04-03T02:16:28;2.80;99.90
47765;DHT22;33529;49.242;8.670;2023-04-03T02:18:55;2.80;99.90
47765;DHT22;33529;49.242;8.670;2023-04-03T02:21:22;2.80;99.90
47765;DHT22;33529;49.242;8.670;2023-04-03T02:23:49;2.80;99.90
47765;DHT22;33529;49.242;8.670;2023-04-03T02:26:18;2.80;99.90
47765;DHT22;33529;49.242;8.670;2023-04-03T02:28:45;2.80;99.90
47765;DHT22;33529;49.242;8.670;2023-04-03T02:31:12;2.80;99.90
47765;DHT22;33529;49.242;8.670;2023-04-03T02:33:41;2.90;99.90
47765;DHT22;33529;49.242;8.670;2023-04-03T02:36:10;2.90;99.90
47765;DHT22;33529;49.242;8.670;2023-04-03T02:38:42;2.80;99.90
47765;DHT22;33529;49.242;8.670;2023-04-03T02:41:16;2.90;99.90
47765;DHT22;33529;49.242;8.670;2023-04-03T02:43:43;2.90;99.90
47765;DHT22;33529;49.242;8.670;2023-04-03T02:46:10;2.90;99.90
47765;DHT22;33529;49.242;8.670;2023-04-03T02:48:37;3.00;99.90
47765;DHT22;33529;49.242;8.670;2023-04-03T02:51:04;3.00;99.90
47765;DHT22;33529;49.242;8.670;2023-04-03T02:53:30;3.00;99.90
47765;DHT22;33529;49.242;8.670;2023-04-03T02:56:02;3.00;99.90
47765;DHT22;33529;49.242;8.670;2023-04-03T02:58:28;3.00;99.90
47765;DHT22;33529;49.242;8.670;2023-04-03T03:00:57;3.00;99.90
47765;DHT22;33529;49.242;8.670;2023-04-03T03:03:24;3.00;99.90
47765;DHT22;33529;49.242;8.670;2023-04-03T03:06:10;3.00;99.90
47765;DHT22;33529;49.242;8.670;2023-04-03T03:08:39;3.00;99.90
47765;DHT22;33529;49.242;8.670;2023-04-03T03:11:07;3.00;99.90
47765;DHT22;33529;49.242;8.670;2023-04-03T03:13:34;3.10;99.90
47765;DHT22;33529;49.242;8.670;2023-04-03T03:16:01;3.20;99.90
47765;DHT22;33529;49.242;8.670;2023-04-03T03:18:28;3.10;99.90
47765;DHT22;33529;49.242;8.670;2023-04-03T03:20:57;3.20;99.90
47765;DHT22;33529;49.242;8.670;2023-04-03T03:23:25;3.20;99.90
47765;DHT22;33529;49.242;8.670;2023-04-03T03:25:57;3.30;99.90
47765;DHT22;33529;49.242;8.670;2023-04-03T03:28:27;3.20;99.90
47765;DHT22;33529;49.242;8.670;2023-04-03T03:30:54;3.20;99.90
47765;DHT22;33529;49.242;8.670;2023-04-03T03:33:22;3.30;99.90
47765;DHT22;33529;49.242;8.670;2023-04-03T03:35:49;3.40;99.90
47765;DHT22;33529;49.242;8.670;2023-04-03T03:38:16;3.40;99.90
47765;DHT22;33529;49.242;8.670;2023-04-03T03:40:47;3.40;99.90
47765;DHT22;33529;49.242;8.670;2023-04-03T03:43:17;3.50;99.90
47765;DHT22;33529;49.242;8.670;2023-04-03T03:45:50;3.40;99.90
47765;DHT22;33529;49.242;8.670;2023-04-03T03:48:17;3.40;99.90
47765;DHT22;33529;49.242;8.670;2023-04-03T03:50:44;3.30;99.90
47765;DHT22;33529;49.242;8.670;2023-04-03T03:53:12;3.20;99.90
47765;DHT22;33529;49.242;8.670;2023-04-03T03:55:40;3.20;99.90
47765;DHT22;33529;49.242;8.670;2023-04-03T03:58:07;3.10;99.90
47765;DHT22;33529;49.242;8.670;2023-04-03T04:00:34;3.00;99.90
47765;DHT22;33529;49.242;8.670;2023-04-03T04:03:01;2.90;99.90
47765;DHT22;33529;49.242;8.670;2023-04-03T04:05:33;2.80;99.90
47765;DHT22;33529;49.242;8.670;2023-04-03T04:08:07;2.70;99.90
47765;DHT22;33529;49.242;8.670;2023-04-03T04:10:34;2.60;99.90
47765;DHT22;33529;49.242;8.670;2023-04-03T04:13:01;2.50;99.90
47765;DHT22;33529;49.242;8.670;2023-04-03T04:15:28;2.40;99.90
47765;DHT22;33529;49.242;8.670;2023-04-03T04:17:56;2.30;99.90
47765;DHT22;33529;49.242;8.670;2023-04-03T04:20:26;2.30;99.90
47765;DHT22;33529;49.242;8.670;2023-04-03T04:22:53;2.20;99.90
47765;DHT22;33529;49.242;8.670;2023-04-03T04:25:21;2.20;99.90
47765;DHT22;33529;49.242;8.670;2023-04-03T04:27:48;2.10;99.90
47765;DHT22;33529;49.242;8.670;2023-04-03T04:30:15;2.00;99.90
47765;DHT22;33529;49.242;8.670;2023-04-03T04:32:44;2.00;99.90
47765;DHT22;33529;49.242;8.670;2023-04-03T04:35:12;2.00;99.90
47765;DHT22;33529;49.242;8.670;2023-04-03T04:37:45;1.90;99.90
47765;DHT22;33529;49.242;8.670;2023-04-03T04:40:13;2.00;99.90
47765;DHT22;33529;49.242;8.670;2023-04-03T04:42:47;1.90;99.90
47765;DHT22;33529;49.242;8.670;2023-04-03T04:45:14;1.80;99.90
47765;DHT22;33529;49.242;8.670;2023-04-03T04:47:44;1.80;99.90
47765;DHT22;33529;49.242;8.670;2023-04-03T04:50:11;1.80;99.90
47765;DHT22;33529;49.242;8.670;2023-04-03T04:52:39;1.70;99.90
47765;DHT22;33529;49.242;8.670;2023-04-03T04:55:07;1.70;99.90
47765;DHT22;33529;49.242;8.670;2023-04-03T04:57:34;1.60;99.90
47765;DHT22;33529;49.242;8.670;2023-04-03T05:00:03;1.60;99.90
47765;DHT22;33529;49.242;8.670;2023-04-03T05:02:30;1.70;99.90
47765;DHT22;33529;49.242;8.670;2023-04-03T05:04:57;1.70;99.90
47765;DHT22;33529;49.242;8.670;2023-04-03T05:07:27;1.70;99.90
47765;DHT22;33529;49.242;8.670;2023-04-03T05:09:55;1.70;99.90
47765;DHT22;33529;49.242;8.670;2023-04-03T05:12:22;1.70;99.90
47765;DHT22;33529;49.242;8.670;2023-04-03T05:14:54;1.70;99.90
47765;DHT22;33529;49.242;8.670;2023-04-03T05:17:21;1.80;99.90
47765;DHT22;33529;49.242;8.670;2023-04-03T05:19:52;1.80;99.90
47765;DHT22;33529;49.242;8.670;2023-04-03T05:22:21;1.80;99.90
47765;DHT22;33529;49.242;8.670;2023-04-03T05:24:49;1.80;99.90
47765;DHT22;33529;49.242;8.670;2023-04-03T05:27:17;1.80;99.90
47765;DHT22;33529;49.242;8.670;2023-04-03T05:29:49;1.80;99.90
47765;DHT22;33529;49.242;8.670;2023-04-03T05:32:20;1.80;99.90
47765;DHT22;33529;49.242;8.670;2023-04-03T05:34:53;1.80;99.90
47765;DHT22;33529;49.242;8.670;2023-04-03T05:37:20;1.80;99.90
47765;DHT22;33529;49.242;8.670;2023-04-03T05:39:49;1.90;99.90
47765;DHT22;33529;49.242;8.670;2023-04-03T05:42:16;1.90;99.90
47765;DHT22;33529;49.242;8.670;2023-04-03T05:44:44;2.00;99.90
47765;DHT22;33529;49.242;8.670;2023-04-03T05:47:13;1.90;99.90
47765;DHT22;33529;49.242;8.670;2023-04-03T05:49:40;2.00;99.90
47765;DHT22;33529;49.242;8.670;2023-04-03T05:52:29;2.10;99.90
47765;DHT22;33529;49.242;8.670;2023-04-03T05:54:57;2.10;99.90
47765;DHT22;33529;49.242;8.670;2023-04-03T05:57:26;2.20;99.90
47765;DHT22;33529;49.242;8.670;2023-04-03T05:59:53;2.30;99.90
47765;DHT22;33529;49.242;8.670;2023-04-03T06:02:23;2.50;99.90
47765;DHT22;33529;49.242;8.670;2023-04-03T06:04:50;2.50;99.90
47765;DHT22;33529;49.242;8.670;2023-04-03T06:07:21;2.40;99.90
47765;DHT22;33529;49.242;8.670;2023-04-03T06:09:50;2.60;99.90
47765;DHT22;33529;49.242;8.670;2023-04-03T06:12:22;2.70;99.90
47765;DHT22;33529;49.242;8.670;2023-04-03T06:14:49;2.70;99.90
47765;DHT22;33529;49.242;8.670;2023-04-03T06:17:17;2.80;99.90
47765;DHT22;33529;49.242;8.670;2023-04-03T06:19:45;2.90;99.90
47765;DHT22;33529;49.242;8.670;2023-04-03T06:22:12;2.90;99.90
47765;DHT22;33529;49.242;8.670;2023-04-03T06:24:39;3.00;99.90
47765;DHT22;33529;49.242;8.670;2023-04-03T06:27:06;3.10;99.90
47765;DHT22;33529;49.242;8.670;2023-04-03T06:29:33;3.10;99.90
47765;DHT22;33529;49.242;8.670;2023-04-03T06:32:00;3.10;99.90
47765;DHT22;33529;49.242;8.670;2023-04-03T06:34:27;3.20;99.90
47765;DHT22;33529;49.242;8.670;2023-04-03T06:36:54;3.40;99.90
47765;DHT22;33529;49.242;8.670;2023-04-03T06:39:22;3.60;99.90
47765;DHT22;33529;49.242;8.670;2023-04-03T06:41:51;3.80;99.90
47765;DHT22;33529;49.242;8.670;2023-04-03T06:44:26;3.90;99.90
47765;DHT22;33529;49.242;8.670;2023-04-03T06:46:53;4.10;99.90
47765;DHT22;33529;49.242;8.670;2023-04-03T06:49:20;4.10;99.90
47765;DHT22;33529;49.242;8.670;2023-04-03T06:51:48;4.20;99.90
47765;DHT22;33529;49.242;8.670;2023-04-03T06:54:14;4.50;99.90
47765;DHT22;33529;49.242;8.670;2023-04-03T06:56:41;4.60;99.90
47765;DHT22;33529;49.242;8.670;2023-04-03T06:59:09;4.60;99.90
47765;DHT22;33529;49.242;8.670;2023-04-03T07:01:36;4.80;99.90
47765;DHT22;33529;49.242;8.670;2023-04-03T07:04:03;4.90;99.90
47765;DHT22;33529;49.242;8.670;2023-04-03T07:06:30;4.90;99.90
47765;DHT22;33529;49.242;8.670;2023-04-03T07:08:58;5.00;99.90
47765;DHT22;33529;49.242;8.670;2023-04-03T07:11:26;5.10;99.90
47765;DHT22;33529;49.242;8.670;2023-04-03T07:13:53;5.30;99.90
47765;DHT22;33529;49.242;8.670;2023-04-03T07:16:23;5.40;99.90
47765;DHT22;33529;49.242;8.670;2023-04-03T07:18:50;5.30;99.90
47765;DHT22;33529;49.242;8.670;2023-04-03T07:21:17;5.40;99.90
47765;DHT22;33529;49.242;8.670;2023-04-03T07:23:44;5.60;99.90
47765;DHT22;33529;49.242;8.670;2023-04-03T07:26:11;5.60;99.90
47765;DHT22;33529;49.242;8.670;2023-04-03T07:28:38;5.70;99.90
47765;DHT22;33529;49.242;8.670;2023-04-03T07:31:09;5.70;99.90
47765;DHT22;33529;49.242;8.670;2023-04-03T07:33:38;5.50;99.90
47765;DHT22;33529;49.242;8.670;2023-04-03T07:36:05;5.50;99.90
47765;DHT22;33529;49.242;8.670;2023-04-03T07:38:34;5.40;99.90
47765;DHT22;33529;49.242;8.670;2023-04-03T07:41:02;5.40;99.90
47765;DHT22;33529;49.242;8.670;2023-04-03T07:43:29;5.50;99.90
47765;DHT22;33529;49.242;8.670;2023-04-03T07:45:56;5.80;99.90
47765;DHT22;33529;49.242;8.670;2023-04-03T07:48:25;5.80;99.90
47765;DHT22;33529;49.242;8.670;2023-04-03T07:50:52;5.90;99.90
47765;DHT22;33529;49.242;8.670;2023-04-03T07:53:19;5.90;99.90
47765;DHT22;33529;49.242;8.670;2023-04-03T07:55:47;5.80;99.90
47765;DHT22;33529;49.242;8.670;2023-04-03T07:58:17;5.90;99.90
47765;DHT22;33529;49.242;8.670;2023-04-03T08:00:45;6.00;99.90
47765;DHT22;33529;49.242;8.670;2023-04-03T08:03:12;6.20;99.90
47765;DHT22;33529;49.242;8.670;2023-04-03T08:05:44;6.30;99.90
47765;DHT22;33529;49.242;8.670;2023-04-03T08:08:13;6.50;99.90
47765;DHT22;33529;49.242;8.670;2023-04-03T08:10:40;6.50;99.90
47765;DHT22;33529;49.242;8.670;2023-04-03T08:13:08;6.50;99.90
47765;DHT22;33529;49.242;8.670;2023-04-03T08:15:35;6.60;99.90
47765;DHT22;33529;49.242;8.670;2023-04-03T08:18:04;6.80;99.90
47765;DHT22;33529;49.242;8.670;2023-04-03T08:20:31;7.30;99.90
47765;DHT22;33529;49.242;8.670;2023-04-03T08:22:58;7.40;99.90
47765;DHT22;33529;49.242;8.670;2023-04-03T08:25:24;7.50;99.90
47765;DHT22;33529;49.242;8.670;2023-04-03T08:27:51;7.70;99.90
47765;DHT22;33529;49.242;8.670;2023-04-03T08:30:18;7.50;99.90
47765;DHT22;33529;49.242;8.670;2023-04-03T08:32:45;7.40;99.90
47765;DHT22;33529;49.242;8.670;2023-04-03T08:35:12;7.60;99.90
47765;DHT22;33529;49.242;8.670;2023-04-03T08:37:39;7.60;99.90
47765;DHT22;33529;49.242;8.670;2023-04-03T08:40:10;7.50;99.90
47765;DHT22;33529;49.242;8.670;2023-04-03T08:45:46;7.80;99.90
47765;DHT22;33529;49.242;8.670;2023-04-03T08:48:18;7.80;99.90
47765;DHT22;33529;49.242;8.670;2023-04-03T08:50:50;8.10;99.90
47765;DHT22;33529;49.242;8.670;2023-04-03T08:53:25;8.20;99.90
47765;DHT22;33529;49.242;8.670;2023-04-03T08:55:55;8.30;99.90
47765;DHT22;33529;49.242;8.670;2023-04-03T08:58:30;8.40;99.00
47765;DHT22;33529;49.242;8.670;2023-04-03T09:01:01;8.30;99.90
47765;DHT22;33529;49.242;8.670;2023-04-03T09:03:32;8.50;99.00
47765;DHT22;33529;49.242;8.670;2023-04-03T09:14:46;7.60;97.50
47765;DHT22;33529;49.242;8.670;2023-04-03T09:17:26;7.40;98.10
47765;DHT22;33529;49.242;8.670;2023-04-03T09:22:35;7.70;94.80
47765;DHT22;33529;49.242;8.670;2023-04-03T09:25:27;7.60;94.30
47765;DHT22;33529;49.242;8.670;2023-04-03T09:27:56;7.70;95.50
47765;DHT22;33529;49.242;8.670;2023-04-03T09:30:25;7.90;97.60
47765;DHT22;33529;49.242;8.670;2023-04-03T09:32:54;8.10;97.30
47765;DHT22;33529;49.242;8.670;2023-04-03T09:40:39;8.10;95.10
47765;DHT22;33529;49.242;8.670;2023-04-03T09:43:29;8.20;95.60
47765;DHT22;33529;49.242;8.670;2023-04-03T09:48:57;8.30;94.60
47765;DHT22;33529;49.242;8.670;2023-04-03T09:51:34;8.50;95.20
47765;DHT22;33529;49.242;8.670;2023-04-03T09:54:31;8.60;95.00
47765;DHT22;33529;49.242;8.670;2023-04-03T09:57:07;8.80;95.50
47765;DHT22;33529;49.242;8.670;2023-04-03T09:59:34;9.10;94.00
47765;DHT22;33529;49.242;8.670;2023-04-03T10:02:30;8.90;94.10
47765;DHT22;33529;49.242;8.670;2023-04-03T10:04:58;9.00;92.80
47765;DHT22;33529;49.242;8.670;2023-04-03T10:07:37;8.80;93.60
47765;DHT22;33529;49.242;8.670;2023-04-03T10:10:19;8.70;93.20
47765;DHT22;33529;49.242;8.670;2023-04-03T10:12:47;8.70;92.10
47765;DHT22;33529;49.242;8.670;2023-04-03T10:15:16;8.80;93.90
47765;DHT22;33529;49.242;8.670;2023-04-03T10:17:57;8.70;92.90
47765;DHT22;33529;49.242;8.670;2023-04-03T10:20:43;8.60;92.00
47765;DHT22;33529;49.242;8.670;2023-04-03T10:23:38;8.60;92.00
47765;DHT22;33529;49.242;8.670;2023-04-03T10:26:39;8.90;91.60
47765;DHT22;33529;49.242;8.670;2023-04-03T10:29:27;8.80;91.50
47765;DHT22;33529;49.242;8.670;2023-04-03T10:32:25;8.80;90.60
47765;DHT22;33529;49.242;8.670;2023-04-03T10:38:15;9.20;90.50
47765;DHT22;33529;49.242;8.670;2023-04-03T10:40:57;9.30;89.70
47765;DHT22;33529;49.242;8.670;2023-04-03T10:46:49;9.50;87.40
47765;DHT22;33529;49.242;8.670;2023-04-03T10:52:47;9.40;89.30
47765;DHT22;33529;49.242;8.670;2023-04-03T10:57:56;9.40;90.50
47765;DHT22;33529;49.242;8.670;2023-04-03T11:00:41;9.50;90.30
47765;DHT22;33529;49.242;8.670;2023-04-03T11:03:17;9.50;89.90
47765;DHT22;33529;49.242;8.670;2023-04-03T11:05:52;9.40;88.00
47765;DHT22;33529;49.242;8.670;2023-04-03T11:11:12;9.20;90.10
47765;DHT22;33529;49.242;8.670;2023-04-03T11:16:50;9.00;90.70
47765;DHT22;33529;49.242;8.670;2023-04-03T11:19:25;9.10;91.00
47765;DHT22;33529;49.242;8.670;2023-04-03T11:21:57;9.20;90.50
47765;DHT22;33529;49.242;8.670;2023-04-03T11:24:29;9.20;90.60
47765;DHT22;33529;49.242;8.670;2023-04-03T11:26:58;9.30;90.60
47765;DHT22;33529;49.242;8.670;2023-04-03T11:29:35;9.50;89.70
47765;DHT22;33529;49.242;8.670;2023-04-03T11:32:29;9.40;89.60
47765;DHT22;33529;49.242;8.670;2023-04-03T11:35:05;9.60;87.40
47765;DHT22;33529;49.242;8.670;2023-04-03T11:37:47;9.00;86.80
47765;DHT22;33529;49.242;8.670;2023-04-03T11:42:46;8.80;87.80
47765;DHT22;33529;49.242;8.670;2023-04-03T11:47:53;9.00;88.60
47765;DHT22;33529;49.242;8.670;2023-04-03T11:58:24;9.20;83.80
47765;DHT22;33529;49.242;8.670;2023-04-03T12:00:56;9.10;83.90
47765;DHT22;33529;49.242;8.670;2023-04-03T12:16:20;8.90;86.30
47765;DHT22;33529;49.242;8.670;2023-04-03T12:24:02;8.90;90.10
47765;DHT22;33529;49.242;8.670;2023-04-03T12:26:50;9.00;89.10
47765;DHT22;33529;49.242;8.670;2023-04-03T12:35:14;8.70;88.90
47765;DHT22;33529;49.242;8.670;2023-04-03T12:40:42;8.70;88.90
47765;DHT22;33529;49.242;8.670;2023-04-03T12:43:37;8.90;88.80
47765;DHT22;33529;49.242;8.670;2023-04-03T12:48:39;9.10;86.80
47765;DHT22;33529;49.242;8.670;2023-04-03T12:51:21;9.00;89.10
47765;DHT22;33529;49.242;8.670;2023-04-03T12:53:51;8.80;88.40
47765;DHT22;33529;49.242;8.670;2023-04-03T12:56:22;8.80;90.40
47765;DHT22;33529;49.242;8.670;2023-04-03T12:58:50;8.60;89.10
47765;DHT22;33529;49.242;8.670;2023-04-03T13:01:20;8.60;90.60
47765;DHT22;33529;49.242;8.670;2023-04-03T13:03:50;8.80;90.80
47765;DHT22;33529;49.242;8.670;2023-04-03T13:06:23;9.00;90.20
47765;DHT22;33529;49.242;8.670;2023-04-03T13:08:58;9.30;91.20
47765;DHT22;33529;49.242;8.670;2023-04-03T13:11:32;9.50;90.20
47765;DHT22;33529;49.242;8.670;2023-04-03T13:14:05;9.60;90.20
47765;DHT22;33529;49.242;8.670;2023-04-03T13:16:39;9.50;85.00
47765;DHT22;33529;49.242;8.670;2023-04-03T13:19:16;9.50;87.00
47765;DHT22;33529;49.242;8.670;2023-04-03T13:21:44;9.60;84.80
47765;DHT22;33529;49.242;8.670;2023-04-03T13:24:12;8.70;88.60
47765;DHT22;33529;49.242;8.670;2023-04-03T13:26:42;8.90;90.30
47765;DHT22;33529;49.242;8.670;2023-04-03T13:29:26;9.20;90.10
47765;DHT22;33529;49.242;8.670;2023-04-03T13:31:59;9.30;86.60
47765;DHT22;33529;49.242;8.670;2023-04-03T13:34:29;9.30;88.90
47765;DHT22;33529;49.242;8.670;2023-04-03T13:37:02;9.00;85.10
47765;DHT22;33529;49.242;8.670;2023-04-03T13:39:34;9.00;86.70
47765;DHT22;33529;49.242;8.670;2023-04-03T13:42:21;9.10;88.80
47765;DHT22;33529;49.242;8.670;2023-04-03T13:44:49;9.50;87.20
47765;DHT22;33529;49.242;8.670;2023-04-03T13:47:22;9.60;86.70
47765;DHT22;33529;49.242;8.670;2023-04-03T13:50:02;9.70;87.40
47765;DHT22;33529;49.242;8.670;2023-04-03T13:52:39;9.60;85.30
47765;DHT22;33529;49.242;8.670;2023-04-03T13:55:48;9.60;86.10
47765;DHT22;33529;49.242;8.670;2023-04-03T14:00:40;9.20;85.40
47765;DHT22;33529;49.242;8.670;2023-04-03T14:03:39;8.90;85.40
47765;DHT22;33529;49.242;8.670;2023-04-03T14:06:10;9.20;82.10
47765;DHT22;33529;49.242;8.670;2023-04-03T14:08:37;9.10;81.40
47765;DHT22;33529;49.242;8.670;2023-04-03T14:11:19;9.20;83.10
47765;DHT22;33529;49.242;8.670;2023-04-03T14:13:48;9.20;80.40
47765;DHT22;33529;49.242;8.670;2023-04-03T14:16:22;9.40;83.50
47765;DHT22;33529;49.242;8.670;2023-04-03T14:18:50;9.50;82.20
47765;DHT22;33529;49.242;8.670;2023-04-03T14:21:19;9.50;81.50
47765;DHT22;33529;49.242;8.670;2023-04-03T14:23:48;9.50;81.80
47765;DHT22;33529;49.242;8.670;2023-04-03T14:26:18;9.70;80.80
47765;DHT22;33529;49.242;8.670;2023-04-03T14:28:46;9.70;81.70
47765;DHT22;33529;49.242;8.670;2023-04-03T14:31:14;9.70;80.60
47765;DHT22;33529;49.242;8.670;2023-04-03T14:33:42;9.40;77.50
47765;DHT22;33529;49.242;8.670;2023-04-03T14:36:16;9.00;80.80
47765;DHT22;33529;49.242;8.670;2023-04-03T14:38:44;8.90;80.80
47765;DHT22;33529;49.242;8.670;2023-04-03T14:41:19;9.00;81.80
47765;DHT22;33529;49.242;8.670;2023-04-03T14:43:49;9.10;77.70
47765;DHT22;33529;49.242;8.670;2023-04-03T14:46:42;9.20;83.60
47765;DHT22;33529;49.242;8.670;2023-04-03T14:49:18;9.20;80.90
47765;DHT22;33529;49.242;8.670;2023-04-03T14:51:44;9.00;80.40
47765;DHT22;33529;49.242;8.670;2023-04-03T14:54:15;8.80;81.50
47765;DHT22;33529;49.242;8.670;2023-04-03T14:56:45;8.40;79.80
47765;DHT22;33529;49.242;8.670;2023-04-03T14:59:13;8.30;80.90
47765;DHT22;33529;49.242;8.670;2023-04-03T15:01:41;8.30;80.60
47765;DHT22;33529;49.242;8.670;2023-04-03T15:04:16;8.40;80.60
47765;DHT22;33529;49.242;8.670;2023-04-03T15:06:44;8.50;79.00
47765;DHT22;33529;49.242;8.670;2023-04-03T15:09:25;8.60;79.00
47765;DHT22;33529;49.242;8.670;2023-04-03T15:11:54;8.50;79.90
47765;DHT22;33529;49.242;8.670;2023-04-03T15:14:21;8.50;78.60
47765;DHT22;33529;49.242;8.670;2023-04-03T15:17:04;8.70;80.50
47765;DHT22;33529;49.242;8.670;2023-04-03T15:19:36;8.60;77.70
47765;DHT22;33529;49.242;8.670;2023-04-03T15:22:04;8.60;79.80
47765;DHT22;33529;49.242;8.670;2023-04-03T15:24:31;8.60;78.60
47765;DHT22;33529;49.242;8.670;2023-04-03T15:26:59;8.50;78.20
47765;DHT22;33529;49.242;8.670;2023-04-03T15:29:26;8.40;79.10
47765;DHT22;33529;49.242;8.670;2023-04-03T15:31:53;8.40;79.50
47765;DHT22;33529;49.242;8.670;2023-04-03T15:34:20;8.40;79.60
47765;DHT22;33529;49.242;8.670;2023-04-03T15:36:49;8.30;78.20
47765;DHT22;33529;49.242;8.670;2023-04-03T15:39:19;8.40;79.90
47765;DHT22;33529;49.242;8.670;2023-04-03T15:41:47;8.30;78.80
47765;DHT22;33529;49.242;8.670;2023-04-03T15:44:14;8.40;79.40
47765;DHT22;33529;49.242;8.670;2023-04-03T15:46:47;8.40;80.50
47765;DHT22;33529;49.242;8.670;2023-04-03T15:49:19;8.50;80.20
47765;DHT22;33529;49.242;8.670;2023-04-03T15:51:47;8.60;79.20
47765;DHT22;33529;49.242;8.670;2023-04-03T15:54:16;8.50;78.30
47765;DHT22;33529;49.242;8.670;2023-04-03T15:56:43;8.50;79.00
47765;DHT22;33529;49.242;8.670;2023-04-03T15:59:10;8.60;77.90
47765;DHT22;33529;49.242;8.670;2023-04-03T16:01:38;8.70;77.30
47765;DHT22;33529;49.242;8.670;2023-04-03T16:04:06;9.40;78.60
47765;DHT22;33529;49.242;8.670;2023-04-03T16:06:34;9.90;78.70
47765;DHT22;33529;49.242;8.670;2023-04-03T16:09:01;9.50;76.30
47765;DHT22;33529;49.242;8.670;2023-04-03T16:11:27;9.20;75.50
47765;DHT22;33529;49.242;8.670;2023-04-03T16:13:54;9.00;77.40
47765;DHT22;33529;49.242;8.670;2023-04-03T16:16:22;8.80;80.70
47765;DHT22;33529;49.242;8.670;2023-04-03T16:18:50;8.60;79.00
47765;DHT22;33529;49.242;8.670;2023-04-03T16:21:17;8.40;79.20
47765;DHT22;33529;49.242;8.670;2023-04-03T16:23:44;8.20;79.80
47765;DHT22;33529;49.242;8.670;2023-04-03T16:26:12;8.00;78.90
47765;DHT22;33529;49.242;8.670;2023-04-03T16:28:39;7.90;80.00
47765;DHT22;33529;49.242;8.670;2023-04-03T16:31:07;7.80;79.20
47765;DHT22;33529;49.242;8.670;2023-04-03T16:33:34;7.70;80.60
47765;DHT22;33529;49.242;8.670;2023-04-03T16:36:03;7.70;80.50
47765;DHT22;33529;49.242;8.670;2023-04-03T16:38:29;7.60;79.30
47765;DHT22;33529;49.242;8.670;2023-04-03T16:40:56;7.60;79.30
47765;DHT22;33529;49.242;8.670;2023-04-03T16:43:26;7.60;79.80
47765;DHT22;33529;49.242;8.670;2023-04-03T16:45:53;7.50;81.60
47765;DHT22;33529;49.242;8.670;2023-04-03T16:48:20;7.50;81.80
47765;DHT22;33529;49.242;8.670;2023-04-03T16:50:48;7.50;80.50
47765;DHT22;33529;49.242;8.670;2023-04-03T16:53:15;7.40;81.20
47765;DHT22;33529;49.242;8.670;2023-04-03T16:55:42;7.40;81.00
47765;DHT22;33529;49.242;8.670;2023-04-03T16:58:09;7.40;77.90
47765;DHT22;33529;49.242;8.670;2023-04-03T17:00:36;7.40;79.30
47765;DHT22;33529;49.242;8.670;2023-04-03T17:03:03;7.30;79.50
47765;DHT22;33529;49.242;8.670;2023-04-03T17:05:30;7.30;81.00
47765;DHT22;33529;49.242;8.670;2023-04-03T17:07:58;7.30;81.30
47765;DHT22;33529;49.242;8.670;2023-04-03T17:10:25;7.20;80.70
47765;DHT22;33529;49.242;8.670;2023-04-03T17:12:52;7.20;79.40
47765;DHT22;33529;49.242;8.670;2023-04-03T17:15:19;7.10;79.60
47765;DHT22;33529;49.242;8.670;2023-04-03T17:17:47;7.10;78.60
47765;DHT22;33529;49.242;8.670;2023-04-03T17:20:15;7.00;79.10
47765;DHT22;33529;49.242;8.670;2023-04-03T17:22:42;6.90;80.70
47765;DHT22;33529;49.242;8.670;2023-04-03T17:25:09;6.80;80.80
47765;DHT22;33529;49.242;8.670;2023-04-03T17:27:36;6.80;81.50
47765;DHT22;33529;49.242;8.670;2023-04-03T17:30:04;6.70;82.30
47765;DHT22;33529;49.242;8.670;2023-04-03T17:32:31;6.70;82.30
47765;DHT22;33529;49.242;8.670;2023-04-03T17:34:58;6.70;80.30